WMKN/TGG METAR and TAF weather

Enter ICAO airport designator
Station Type Date Time Source
WMKN METAR 2022/06/27 17:00 UTC NOAA

WMKN 271700Z VRB02KT 9999 FEW022 28/26 Q1009


Station Type Date Time Source
WMKN Decoded METAR 2022/06/27 17:00 UTC NOAA

Station name not available
Jun 27, 2022 - 01:00 PM EDT / 2022.06.27 1700 UTC
Wind: Variable at 2 MPH (2 KT):0
Visibility: greater than 7 mile(s):0
Sky conditions: mostly clear
Temperature: 82 F (28 C)
Dew Point: 78 F (26 C)
Relative Humidity: 88%
Pressure (altimeter): 29.80 in. Hg (1009 hPa)
ob: WMKN 271700Z VRB02KT 9999 FEW022 28/26 Q1009
cycle: 17

Station Type Date Time Source
WMKN TAF 2022/06/27 18:00 UTC NOAA

TAF WMKN 271700Z 2718/2818 VRB03KT 9999 FEW022

Example: see airport list